createdAt,value
2023-03-27T00:02:10.399Z,2.26
2023-03-27T00:04:36.623Z,2.38
2023-03-27T00:07:02.821Z,2.35
2023-03-27T00:09:29.805Z,2.11
2023-03-27T00:11:56.135Z,2.17
2023-03-27T00:14:22.386Z,2.17
2023-03-27T00:16:48.659Z,2.26
2023-03-27T00:19:14.896Z,2.14
2023-03-27T00:21:41.091Z,2.13
2023-03-27T00:24:07.428Z,2.12
2023-03-27T00:26:33.635Z,2.12
2023-03-27T00:28:59.846Z,2.18
2023-03-27T00:31:26.119Z,2.24
2023-03-27T00:33:52.384Z,2.33
2023-03-27T00:36:18.591Z,2.23
2023-03-27T00:38:44.809Z,2.21
2023-03-27T00:41:11.040Z,2.24
2023-03-27T00:43:38.881Z,2.35
2023-03-27T00:46:07.906Z,2.28
2023-03-27T00:48:34.708Z,2.40
2023-03-27T00:51:00.902Z,2.45
2023-03-27T00:53:27.801Z,2.42
2023-03-27T00:55:54.803Z,2.38
2023-03-27T00:58:31.723Z,2.13
2023-03-27T01:00:58.172Z,2.14
2023-03-27T01:03:25.153Z,2.24
2023-03-27T01:05:51.663Z,2.37
2023-03-27T01:08:17.862Z,2.13
2023-03-27T01:10:51.568Z,2.04
2023-03-27T01:13:36.511Z,2.13
2023-03-27T01:16:05.687Z,2.10
2023-03-27T01:18:34.795Z,2.13
2023-03-27T01:21:10.946Z,2.09
2023-03-27T01:23:59.706Z,1.83
2023-03-27T01:26:37.166Z,1.97
2023-03-27T01:29:09.980Z,1.98
2023-03-27T01:31:52.032Z,1.85
2023-03-27T01:34:21.258Z,2.01
2023-03-27T01:37:02.797Z,2.00
2023-03-27T01:39:28.955Z,1.86
2023-03-27T01:42:33.753Z,1.62
2023-03-27T01:45:05.882Z,1.75
2023-03-27T01:47:52.113Z,1.96
2023-03-27T01:50:22.486Z,2.00
2023-03-27T01:52:56.713Z,2.03
2023-03-27T01:55:23.956Z,2.13
2023-03-27T01:57:51.591Z,2.06
2023-03-27T02:00:19.769Z,2.05
2023-03-27T02:02:47.988Z,2.03
2023-03-27T02:05:16.388Z,2.03
2023-03-27T02:07:44.171Z,2.03
2023-03-27T02:10:12.277Z,1.96
2023-03-27T02:12:39.561Z,1.98
2023-03-27T02:15:23.288Z,1.99
2023-03-27T02:17:52.820Z,2.08
2023-03-27T02:20:19.042Z,1.88
2023-03-27T02:22:45.426Z,1.88
2023-03-27T02:25:30.900Z,1.92
2023-03-27T02:28:00.130Z,1.82
2023-03-27T02:30:27.101Z,1.96
2023-03-27T02:32:56.532Z,2.02
2023-03-27T02:35:24.691Z,2.01
2023-03-27T02:37:56.763Z,1.90
2023-03-27T02:40:27.768Z,1.79
2023-03-27T02:43:04.934Z,1.84
2023-03-27T02:45:36.786Z,1.97
2023-03-27T02:48:05.336Z,1.74
2023-03-27T02:50:43.612Z,1.64
2023-03-27T02:53:09.821Z,1.47
2023-03-27T02:55:37.452Z,1.65
2023-03-27T02:58:05.115Z,1.56
2023-03-27T03:00:32.103Z,1.59
2023-03-27T03:03:00.359Z,1.44
2023-03-27T03:05:26.594Z,1.69
2023-03-27T03:07:52.838Z,1.67
2023-03-27T03:10:19.049Z,1.76
2023-03-27T03:12:45.254Z,1.73
2023-03-27T03:15:11.452Z,1.72
2023-03-27T03:17:37.733Z,1.72
2023-03-27T03:20:04.060Z,1.59
2023-03-27T03:22:30.267Z,1.55
2023-03-27T03:24:56.468Z,1.63
2023-03-27T03:27:22.719Z,1.64
2023-03-27T03:29:49.020Z,1.63
2023-03-27T03:32:15.245Z,1.57
2023-03-27T03:34:41.450Z,1.65
2023-03-27T03:37:07.696Z,1.63
2023-03-27T03:39:33.895Z,1.62
2023-03-27T03:42:00.107Z,1.43
2023-03-27T03:44:26.316Z,1.49
2023-03-27T03:46:52.579Z,1.66
2023-03-27T03:49:18.803Z,1.09
2023-03-27T03:51:45.006Z,1.22
2023-03-27T03:54:11.222Z,1.28
2023-03-27T03:56:37.505Z,1.07
2023-03-27T03:59:03.785Z,1.30
2023-03-27T04:01:30.040Z,1.18
2023-03-27T04:03:56.287Z,1.06
2023-03-27T04:06:22.561Z,0.98
2023-03-27T04:08:48.814Z,0.87
2023-03-27T04:11:15.043Z,0.75
2023-03-27T04:13:41.249Z,0.74
2023-03-27T04:16:07.584Z,0.77
2023-03-27T04:18:34.285Z,0.65
2023-03-27T04:21:00.779Z,0.55
2023-03-27T04:23:26.995Z,0.67
2023-03-27T04:25:53.230Z,0.60
2023-03-27T04:28:19.443Z,0.48
2023-03-27T04:30:45.651Z,0.45
2023-03-27T04:33:11.851Z,0.57
2023-03-27T04:35:38.093Z,0.55
2023-03-27T04:38:04.313Z,0.55
2023-03-27T04:40:30.521Z,0.52
2023-03-27T04:42:56.731Z,0.62
2023-03-27T04:45:22.948Z,0.82
2023-03-27T04:47:49.273Z,0.82
2023-03-27T04:50:15.605Z,0.99
2023-03-27T04:52:42.121Z,1.00
2023-03-27T04:55:08.466Z,0.95
2023-03-27T04:57:34.756Z,1.04
2023-03-27T05:00:01.150Z,1.06
2023-03-27T05:02:27.416Z,1.30
2023-03-27T05:04:54.100Z,1.36
2023-03-27T05:07:20.293Z,1.29
2023-03-27T05:09:46.493Z,1.33
2023-03-27T05:12:12.701Z,1.27
2023-03-27T05:14:38.915Z,1.28
2023-03-27T05:17:05.116Z,1.12
2023-03-27T05:19:31.323Z,0.97
2023-03-27T05:21:57.522Z,1.02
2023-03-27T05:24:23.756Z,1.09
2023-03-27T05:26:49.969Z,0.99
2023-03-27T05:29:16.261Z,1.07
2023-03-27T05:31:42.460Z,1.33
2023-03-27T05:34:08.672Z,1.62
2023-03-27T05:36:34.893Z,1.69
2023-03-27T05:39:01.148Z,1.77
2023-03-27T05:41:27.356Z,1.82
2023-03-27T05:43:53.564Z,1.93
2023-03-27T05:46:20.656Z,1.79
2023-03-27T05:48:47.684Z,1.71
2023-03-27T05:51:13.899Z,1.79
2023-03-27T05:53:40.101Z,1.87
2023-03-27T05:56:07.105Z,1.89
2023-03-27T05:58:33.311Z,1.94
2023-03-27T06:00:59.529Z,1.99
2023-03-27T06:03:25.958Z,1.95
2023-03-27T06:05:52.323Z,1.98
2023-03-27T06:08:20.219Z,1.95
2023-03-27T06:10:46.419Z,1.92
2023-03-27T06:13:12.850Z,1.99
2023-03-27T06:15:39.964Z,2.00
2023-03-27T06:18:06.241Z,2.21
2023-03-27T06:20:32.500Z,2.44
2023-03-27T06:22:58.956Z,2.49
2023-03-27T06:25:25.356Z,3.04
2023-03-27T06:27:51.638Z,3.29
2023-03-27T06:30:18.475Z,3.15
2023-03-27T06:32:44.755Z,2.85
2023-03-27T06:35:10.995Z,2.88
2023-03-27T06:37:37.202Z,2.65
2023-03-27T06:40:03.555Z,3.07
2023-03-27T06:42:29.778Z,3.55
2023-03-27T06:44:55.983Z,3.24
2023-03-27T06:47:22.315Z,3.86
2023-03-27T06:49:48.569Z,3.73
2023-03-27T06:52:14.942Z,4.60
2023-03-27T06:54:41.143Z,4.35
2023-03-27T06:57:07.382Z,3.65
2023-03-27T06:59:33.621Z,3.64
2023-03-27T07:01:59.864Z,3.58
2023-03-27T07:04:26.072Z,3.45
2023-03-27T07:06:52.304Z,3.25
2023-03-27T07:09:18.528Z,3.89
2023-03-27T07:11:44.791Z,4.76
2023-03-27T07:14:11.000Z,4.58
2023-03-27T07:16:37.293Z,3.97
2023-03-27T07:19:03.545Z,3.79
2023-03-27T07:21:29.873Z,3.34
2023-03-27T07:23:56.111Z,3.35
2023-03-27T07:26:22.319Z,3.28
2023-03-27T07:28:48.520Z,3.27
2023-03-27T07:31:31.640Z,3.26
2023-03-27T07:34:01.007Z,3.12
2023-03-27T07:36:27.298Z,3.05
2023-03-27T07:38:53.495Z,3.13
2023-03-27T07:41:19.720Z,3.38
2023-03-27T07:43:45.931Z,3.21
2023-03-27T07:46:12.211Z,3.28
2023-03-27T07:48:38.455Z,3.28
2023-03-27T07:51:13.394Z,3.38
2023-03-27T07:53:40.231Z,3.46
2023-03-27T07:56:06.645Z,3.50
2023-03-27T07:58:32.874Z,3.54
2023-03-27T08:00:59.543Z,3.31
2023-03-27T08:03:26.034Z,3.70
2023-03-27T08:05:52.894Z,3.53
2023-03-27T08:08:19.099Z,3.32
2023-03-27T08:10:45.330Z,3.93
2023-03-27T08:13:11.551Z,4.98
2023-03-27T08:15:37.923Z,4.93
2023-03-27T08:18:04.168Z,5.08
2023-03-27T08:20:30.399Z,5.16
2023-03-27T08:22:56.632Z,5.66
2023-03-27T08:25:22.981Z,5.50
2023-03-27T08:27:49.275Z,5.68
2023-03-27T08:30:16.857Z,6.04
2023-03-27T08:32:43.377Z,5.21
2023-03-27T08:35:09.676Z,4.41
2023-03-27T08:37:35.882Z,4.76
2023-03-27T08:40:02.093Z,5.49
2023-03-27T08:42:34.994Z,5.35
2023-03-27T08:45:03.968Z,6.10
2023-03-27T08:47:34.052Z,6.04
2023-03-27T08:50:00.378Z,5.88
2023-03-27T08:52:30.442Z,6.02
2023-03-27T08:55:07.176Z,6.53
2023-03-27T08:57:33.397Z,5.42
2023-03-27T08:59:59.752Z,5.12
2023-03-27T09:02:25.999Z,5.67
2023-03-27T09:04:52.197Z,5.49
2023-03-27T09:07:37.291Z,5.42
2023-03-27T09:10:05.749Z,5.34
2023-03-27T09:12:35.665Z,6.37
2023-03-27T09:15:09.469Z,6.45
2023-03-27T09:17:39.421Z,6.74
2023-03-27T09:20:16.436Z,6.59
2023-03-27T09:22:48.608Z,6.04
2023-03-27T09:25:17.389Z,5.53
2023-03-27T09:27:43.603Z,5.45
2023-03-27T09:30:12.841Z,5.63
2023-03-27T09:32:39.092Z,5.49
2023-03-27T09:35:05.375Z,5.08
2023-03-27T09:37:31.671Z,4.77
2023-03-27T09:39:58.279Z,4.61
2023-03-27T09:42:25.976Z,4.39
2023-03-27T09:44:53.228Z,3.77
2023-03-27T09:47:20.455Z,3.36
2023-03-27T09:49:47.529Z,3.38
2023-03-27T09:52:32.374Z,3.32
2023-03-27T09:54:58.591Z,2.90
2023-03-27T09:57:28.505Z,2.11
2023-03-27T09:59:58.339Z,1.57
2023-03-27T10:02:26.337Z,1.47
2023-03-27T10:05:05.818Z,1.50
2023-03-27T10:07:32.026Z,1.48
2023-03-27T10:10:17.144Z,1.76
2023-03-27T10:12:43.435Z,2.07
2023-03-27T10:15:28.434Z,2.18
2023-03-27T10:17:54.645Z,2.30
2023-03-27T10:20:20.963Z,2.33
2023-03-27T10:22:53.393Z,2.38
2023-03-27T10:25:31.229Z,2.36
2023-03-27T10:28:07.229Z,3.05
2023-03-27T10:30:33.922Z,3.92
2023-03-27T10:33:00.181Z,4.21
2023-03-27T10:35:28.983Z,4.53
2023-03-27T10:37:55.200Z,4.93
2023-03-27T10:40:22.124Z,5.01
2023-03-27T10:42:48.340Z,5.42
2023-03-27T10:45:18.285Z,5.54
2023-03-27T10:47:51.606Z,5.86
2023-03-27T10:50:22.646Z,6.00
2023-03-27T10:53:02.770Z,5.76
2023-03-27T10:55:47.776Z,5.47
2023-03-27T10:58:24.158Z,5.89
2023-03-27T11:00:57.994Z,5.43
2023-03-27T11:03:28.462Z,6.27
2023-03-27T11:05:54.681Z,6.45
2023-03-27T11:08:42.916Z,6.30
2023-03-27T11:11:13.070Z,5.99
2023-03-27T11:13:40.961Z,5.38
2023-03-27T11:16:15.983Z,5.15
2023-03-27T11:18:43.777Z,5.06
2023-03-27T11:21:14.092Z,4.95
2023-03-27T11:23:43.248Z,5.33
2023-03-27T11:26:10.902Z,5.52
2023-03-27T11:28:46.182Z,5.57
2023-03-27T11:31:27.339Z,5.12
2023-03-27T11:33:59.265Z,5.00
2023-03-27T11:36:36.569Z,5.59
2023-03-27T11:39:09.575Z,5.63
2023-03-27T11:41:35.816Z,5.74
2023-03-27T11:44:02.049Z,5.96
2023-03-27T11:46:37.592Z,6.00
2023-03-27T11:49:06.583Z,5.92
2023-03-27T11:51:36.619Z,5.64
2023-03-27T11:54:26.154Z,5.47
2023-03-27T11:56:55.803Z,5.63
2023-03-27T11:59:27.959Z,5.82
2023-03-27T12:02:00.151Z,6.36
2023-03-27T12:04:40.509Z,6.09
2023-03-27T12:07:35.399Z,6.07
2023-03-27T12:10:02.511Z,5.35
2023-03-27T12:12:50.090Z,5.83
2023-03-27T12:15:31.669Z,6.33
2023-03-27T12:18:04.131Z,6.18
2023-03-27T12:20:41.641Z,6.51
2023-03-27T12:23:18.838Z,6.10
2023-03-27T12:26:04.861Z,5.65
2023-03-27T12:28:34.031Z,5.48
2023-03-27T12:31:21.639Z,6.18
2023-03-27T12:34:03.487Z,6.05
2023-03-27T12:36:34.812Z,6.00
2023-03-27T12:39:01.038Z,5.62
2023-03-27T12:41:30.929Z,5.46
2023-03-27T12:43:58.043Z,5.73
2023-03-27T12:46:24.334Z,5.82
2023-03-27T12:48:56.661Z,5.48
2023-03-27T12:51:35.722Z,5.83
2023-03-27T12:54:24.955Z,6.24
2023-03-27T12:57:10.193Z,6.50
2023-03-27T12:59:48.803Z,6.52
2023-03-27T13:02:15.051Z,6.02
2023-03-27T13:04:47.397Z,6.41
2023-03-27T13:07:18.227Z,6.37
2023-03-27T13:10:03.250Z,6.91
2023-03-27T13:12:33.343Z,6.52
2023-03-27T13:15:02.740Z,6.43
2023-03-27T13:17:41.043Z,6.25
2023-03-27T13:20:09.961Z,6.68
2023-03-27T13:22:45.305Z,6.49
2023-03-27T13:25:21.564Z,6.53
2023-03-27T13:27:50.848Z,6.50
2023-03-27T13:30:35.840Z,6.24
2023-03-27T13:33:15.190Z,6.53
2023-03-27T13:36:10.786Z,6.41
2023-03-27T13:39:08.614Z,6.41
2023-03-27T13:41:37.887Z,6.00
2023-03-27T13:44:04.657Z,5.31
2023-03-27T13:46:30.925Z,4.99
2023-03-27T13:48:57.132Z,4.78
2023-03-27T13:51:34.125Z,4.76
2023-03-27T13:54:16.928Z,4.92
2023-03-27T13:56:46.164Z,4.58
2023-03-27T13:59:31.145Z,4.20
2023-03-27T14:02:15.451Z,4.40
2023-03-27T14:04:57.108Z,4.36
2023-03-27T14:07:41.916Z,4.41
2023-03-27T14:10:08.117Z,4.52
2023-03-27T14:12:45.729Z,4.42
2023-03-27T14:15:24.157Z,4.32
2023-03-27T14:18:13.788Z,4.20
2023-03-27T14:20:41.710Z,3.75
2023-03-27T14:23:12.424Z,3.52
2023-03-27T14:25:39.599Z,3.61
2023-03-27T14:28:06.292Z,3.60
2023-03-27T14:30:33.889Z,3.53
2023-03-27T14:33:03.182Z,3.42
2023-03-27T14:35:34.327Z,3.31
2023-03-27T14:38:01.177Z,3.27
2023-03-27T14:40:28.677Z,3.49
2023-03-27T14:42:55.270Z,3.67
2023-03-27T14:45:22.210Z,3.83
2023-03-27T14:47:52.104Z,3.92
2023-03-27T14:50:18.390Z,4.02
2023-03-27T14:52:44.632Z,4.10
2023-03-27T14:55:12.917Z,4.21
2023-03-27T14:57:39.220Z,4.24
2023-03-27T15:00:05.840Z,4.02
2023-03-27T15:02:32.998Z,3.93
2023-03-27T15:05:09.575Z,3.91
2023-03-27T15:07:35.871Z,3.96
2023-03-27T15:10:09.292Z,4.02
2023-03-27T15:12:35.541Z,4.03
2023-03-27T15:15:01.772Z,4.01
2023-03-27T15:17:28.349Z,3.88
2023-03-27T15:19:55.691Z,3.93
2023-03-27T15:22:24.936Z,3.92
2023-03-27T15:24:51.104Z,3.86
2023-03-27T15:27:21.909Z,3.92
2023-03-27T15:29:52.566Z,3.80
2023-03-27T15:32:18.864Z,3.72
2023-03-27T15:34:45.737Z,3.70
2023-03-27T15:37:13.522Z,3.70
2023-03-27T15:39:58.422Z,3.67
2023-03-27T15:45:37.667Z,3.46
2023-03-27T15:48:04.730Z,3.38
2023-03-27T15:50:30.976Z,3.38
2023-03-27T15:52:57.226Z,3.32
2023-03-27T15:55:30.850Z,3.29
2023-03-27T15:57:57.143Z,2.89
2023-03-27T16:00:23.347Z,2.48
2023-03-27T16:02:49.680Z,2.43
2023-03-27T16:05:16.242Z,2.80
2023-03-27T16:07:43.530Z,2.90
2023-03-27T16:10:10.071Z,2.98
2023-03-27T16:12:39.314Z,3.07
2023-03-27T16:15:08.182Z,3.02
2023-03-27T16:17:34.832Z,3.04
2023-03-27T16:20:02.285Z,3.03
2023-03-27T16:22:32.295Z,3.04
2023-03-27T16:24:59.266Z,3.09
2023-03-27T16:27:27.144Z,3.01
2023-03-27T16:29:53.386Z,2.89
2023-03-27T16:32:19.991Z,2.87
2023-03-27T16:34:46.208Z,2.85
2023-03-27T16:37:12.407Z,2.79
2023-03-27T16:39:38.619Z,2.77
2023-03-27T16:42:04.921Z,2.79
2023-03-27T16:44:31.137Z,2.81
2023-03-27T16:46:57.351Z,2.78
2023-03-27T16:49:23.556Z,2.78
2023-03-27T16:51:49.770Z,2.85
2023-03-27T16:54:16.006Z,2.73
2023-03-27T16:56:42.274Z,2.74
2023-03-27T16:59:08.559Z,2.64
2023-03-27T17:01:34.852Z,2.60
2023-03-27T17:04:01.232Z,2.59
2023-03-27T17:06:27.466Z,2.61
2023-03-27T17:08:53.783Z,2.52
2023-03-27T17:11:19.988Z,2.48
2023-03-27T17:13:46.196Z,2.48
2023-03-27T17:16:12.398Z,2.51
2023-03-27T17:18:38.660Z,2.52
2023-03-27T17:21:04.908Z,2.51
2023-03-27T17:23:31.119Z,2.51
2023-03-27T17:25:59.429Z,2.54
2023-03-27T17:28:25.702Z,2.68
2023-03-27T17:31:03.836Z,2.68
2023-03-27T17:33:31.161Z,2.78
2023-03-27T17:35:57.715Z,2.88
2023-03-27T17:38:24.218Z,2.97
2023-03-27T17:40:50.707Z,2.96
2023-03-27T17:43:16.923Z,2.89
2023-03-27T17:45:43.140Z,2.68
2023-03-27T17:48:09.834Z,2.62
2023-03-27T17:50:36.163Z,2.62
2023-03-27T17:53:02.387Z,2.69
2023-03-27T17:55:28.594Z,2.76
2023-03-27T17:58:07.791Z,2.63
2023-03-27T18:00:35.799Z,2.66
2023-03-27T18:03:02.297Z,2.61
2023-03-27T18:05:28.604Z,2.56
2023-03-27T18:07:54.815Z,2.67
2023-03-27T18:10:21.030Z,2.74
2023-03-27T18:12:47.319Z,2.72
2023-03-27T18:15:13.803Z,2.78
2023-03-27T18:17:40.065Z,2.89
2023-03-27T18:20:06.779Z,2.71
2023-03-27T18:22:33.041Z,2.81
2023-03-27T18:24:59.291Z,2.76
2023-03-27T18:27:25.500Z,2.65
2023-03-27T18:29:51.712Z,2.65
2023-03-27T18:32:17.933Z,2.70
2023-03-27T18:34:44.134Z,2.61
2023-03-27T18:37:10.341Z,2.68
2023-03-27T18:39:36.556Z,2.67
2023-03-27T18:42:02.757Z,2.65
2023-03-27T18:44:28.964Z,2.66
2023-03-27T18:46:55.153Z,2.56
2023-03-27T18:49:24.720Z,2.49
2023-03-27T18:51:51.620Z,2.35
2023-03-27T18:54:17.859Z,2.15
2023-03-27T18:56:44.169Z,2.03
2023-03-27T18:59:10.441Z,2.00
2023-03-27T19:01:36.783Z,1.92
2023-03-27T19:04:03.193Z,1.91
2023-03-27T19:06:29.553Z,1.75
2023-03-27T19:08:55.752Z,1.66
2023-03-27T19:11:22.077Z,1.76
2023-03-27T19:13:48.276Z,1.72
2023-03-27T19:16:15.147Z,1.69
2023-03-27T19:18:41.791Z,1.68
2023-03-27T19:21:07.998Z,1.68
2023-03-27T19:23:34.201Z,1.56
2023-03-27T19:26:10.364Z,1.68
2023-03-27T19:28:36.578Z,1.63
2023-03-27T19:31:06.574Z,1.55
2023-03-27T19:33:32.847Z,1.55
2023-03-27T19:35:59.119Z,1.58
2023-03-27T19:38:25.347Z,1.49
2023-03-27T19:40:51.550Z,1.50
2023-03-27T19:43:17.752Z,1.51
2023-03-27T19:46:08.337Z,1.61
2023-03-27T19:48:40.868Z,1.70
2023-03-27T19:51:07.079Z,1.77
2023-03-27T19:53:33.293Z,1.79
2023-03-27T19:55:59.533Z,1.82
2023-03-27T19:58:25.985Z,1.79
2023-03-27T20:00:52.574Z,1.85
2023-03-27T20:03:19.651Z,1.80
2023-03-27T20:05:46.503Z,1.84
2023-03-27T20:08:12.721Z,1.84
2023-03-27T20:10:38.992Z,1.83
2023-03-27T20:13:05.222Z,1.87
2023-03-27T20:15:31.478Z,1.79
2023-03-27T20:17:57.706Z,1.80
2023-03-27T20:20:23.981Z,1.78
2023-03-27T20:22:57.477Z,1.88
2023-03-27T20:25:24.439Z,1.92
2023-03-27T20:27:50.654Z,1.93
2023-03-27T20:30:16.886Z,1.94
2023-03-27T20:32:43.107Z,1.92
2023-03-27T20:35:20.673Z,1.99
2023-03-27T20:37:49.659Z,2.07
2023-03-27T20:40:16.035Z,2.06
2023-03-27T20:42:42.524Z,2.04
2023-03-27T20:45:08.924Z,2.02
2023-03-27T20:47:35.144Z,2.09
2023-03-27T20:50:01.385Z,2.09
2023-03-27T20:52:27.588Z,2.17
2023-03-27T20:54:53.841Z,2.10
2023-03-27T20:57:20.160Z,2.12
2023-03-27T20:59:47.683Z,2.12
2023-03-27T21:02:15.550Z,2.09
2023-03-27T21:04:41.804Z,2.11
2023-03-27T21:07:08.031Z,2.08
2023-03-27T21:09:34.240Z,2.03
2023-03-27T21:12:00.469Z,2.09
2023-03-27T21:14:26.725Z,1.43
2023-03-27T21:16:52.980Z,1.13
2023-03-27T21:19:19.221Z,1.22
2023-03-27T21:21:45.517Z,1.22
2023-03-27T21:24:11.766Z,1.23
2023-03-27T21:26:37.997Z,1.33
2023-03-27T21:29:04.229Z,1.41
2023-03-27T21:31:30.571Z,1.58
2023-03-27T21:33:56.924Z,1.59
2023-03-27T21:36:23.199Z,1.60
2023-03-27T21:38:49.518Z,1.59
2023-03-27T21:41:15.959Z,1.53
2023-03-27T21:43:42.176Z,1.46
2023-03-27T21:46:08.454Z,1.30
2023-03-27T21:48:34.687Z,1.14
2023-03-27T21:51:01.299Z,1.14
2023-03-27T21:53:27.558Z,1.14
2023-03-27T21:55:53.771Z,1.25
2023-03-27T21:58:19.992Z,1.36
2023-03-27T22:00:46.379Z,1.35
2023-03-27T22:03:12.596Z,1.32
2023-03-27T22:05:38.809Z,1.39
2023-03-27T22:08:05.031Z,1.32
2023-03-27T22:10:31.243Z,1.31
2023-03-27T22:12:57.474Z,1.33
2023-03-27T22:15:23.669Z,1.37
2023-03-27T22:17:49.944Z,1.37
2023-03-27T22:20:16.201Z,1.30
2023-03-27T22:22:42.425Z,1.28
2023-03-27T22:25:08.724Z,1.26
2023-03-27T22:27:34.940Z,1.29
2023-03-27T22:30:01.139Z,1.31
2023-03-27T22:32:27.375Z,1.28
2023-03-27T22:34:53.612Z,1.28
2023-03-27T22:37:19.838Z,1.26
2023-03-27T22:39:46.122Z,1.28
2023-03-27T22:42:12.353Z,1.34
2023-03-27T22:44:38.564Z,1.22
2023-03-27T22:47:04.781Z,1.19
2023-03-27T22:49:31.042Z,1.17
2023-03-27T22:51:57.294Z,1.22
2023-03-27T22:54:23.490Z,1.19
2023-03-27T22:56:49.755Z,1.18
2023-03-27T22:59:16.015Z,1.16
2023-03-27T23:01:42.302Z,1.22
2023-03-27T23:04:08.605Z,1.45
2023-03-27T23:06:34.934Z,1.60
2023-03-27T23:09:01.171Z,1.59
2023-03-27T23:11:27.385Z,1.61
2023-03-27T23:13:53.596Z,1.60
2023-03-27T23:16:19.812Z,1.67
2023-03-27T23:18:46.043Z,1.60
2023-03-27T23:21:12.519Z,1.59
2023-03-27T23:23:38.947Z,1.63
2023-03-27T23:26:05.345Z,1.65
2023-03-27T23:28:35.412Z,1.67
2023-03-27T23:31:02.357Z,1.65
2023-03-27T23:33:28.885Z,1.56
2023-03-27T23:36:00.193Z,1.58
2023-03-27T23:38:26.587Z,1.52
2023-03-27T23:40:56.110Z,1.55
2023-03-27T23:43:22.341Z,1.49
2023-03-27T23:45:48.591Z,1.47
2023-03-27T23:48:14.811Z,1.47
2023-03-27T23:50:41.005Z,1.61
2023-03-27T23:53:07.220Z,1.56
2023-03-27T23:55:33.410Z,1.49
2023-03-27T23:57:59.623Z,1.50
